AAL2330 KDFW-KLIT
Flight info
| Callsign | AAL2330 |
|---|---|
| Flight time | 0h 47m |
| Altitude | 31000 |
| Route | ZACHH4 BSKAT LIT |
| Aircraft | B738/M-SDE2E3FGHIRWXY/LB1 |
Departure
| Time | 2026-04-16 04:08 |
|---|---|
| Airport | Dallas Fort Worth International Airport (KDFW) |
Arrival
| Time | 2026-04-16 04:56 |
|---|---|
| Airport | Bill & Hillary Clinton National Airport/Adams Field (KLIT) |
| Time | Latitude | Longitude | Altitude | Speed | Heading |
|---|---|---|---|---|---|
| 2026-04-16 03:46 | 32.90179 | -97.03738 | 586 ft | 0 kts | 353° |
| 2026-04-16 03:58 | 32.90172 | -97.03737 | 586 ft | 2 kts | 356° |
| 2026-04-16 03:58 | 32.90153 | -97.03737 | 586 ft | 3 kts | 3° |
| 2026-04-16 03:59 | 32.90137 | -97.03738 | 586 ft | 3 kts | 7° |
| 2026-04-16 03:59 | 32.90121 | -97.03744 | 586 ft | 3 kts | 54° |
| 2026-04-16 03:59 | 32.90114 | -97.03765 | 586 ft | 3 kts | 84° |
| 2026-04-16 03:59 | 32.90113 | -97.03781 | 586 ft | 1 kts | 90° |
| 2026-04-16 04:00 | 32.90113 | -97.03786 | 586 ft | 0 kts | 90° |
| 2026-04-16 04:01 | 32.90113 | -97.03785 | 586 ft | 0 kts | 90° |
| 2026-04-16 04:02 | 32.90113 | -97.03783 | 586 ft | 1 kts | 90° |
| 2026-04-16 04:02 | 32.90112 | -97.03756 | 586 ft | 8 kts | 95° |
| 2026-04-16 04:02 | 32.90100 | -97.03671 | 586 ft | 12 kts | 101° |
| 2026-04-16 04:02 | 32.90091 | -97.03575 | 586 ft | 12 kts | 91° |
| 2026-04-16 04:03 | 32.90090 | -97.03481 | 586 ft | 11 kts | 91° |
| 2026-04-16 04:03 | 32.90089 | -97.03391 | 586 ft | 10 kts | 91° |
| 2026-04-16 04:03 | 32.90089 | -97.03353 | 585 ft | 5 kts | 84° |
| 2026-04-16 04:03 | 32.90125 | -97.03319 | 584 ft | 11 kts | 14° |
| 2026-04-16 04:04 | 32.90227 | -97.03313 | 584 ft | 18 kts | 0° |
| 2026-04-16 04:04 | 32.90370 | -97.03312 | 584 ft | 21 kts | 0° |
| 2026-04-16 04:04 | 32.90516 | -97.03311 | 584 ft | 21 kts | 359° |
| 2026-04-16 04:04 | 32.90658 | -97.03310 | 584 ft | 20 kts | 0° |
| 2026-04-16 04:05 | 32.90795 | -97.03309 | 585 ft | 19 kts | 0° |
| 2026-04-16 04:05 | 32.90928 | -97.03307 | 583 ft | 19 kts | 1° |
| 2026-04-16 04:05 | 32.91068 | -97.03290 | 579 ft | 21 kts | 8° |
| 2026-04-16 04:05 | 32.91207 | -97.03273 | 580 ft | 20 kts | 1° |
| 2026-04-16 04:06 | 32.91341 | -97.03272 | 580 ft | 12 kts | 0° |
| 2026-04-16 04:06 | 32.91390 | -97.03262 | 580 ft | 6 kts | 33° |
| 2026-04-16 04:06 | 32.91416 | -97.03202 | 582 ft | 11 kts | 83° |
| 2026-04-16 04:06 | 32.91416 | -97.03107 | 582 ft | 12 kts | 92° |
| 2026-04-16 04:07 | 32.91412 | -97.03021 | 577 ft | 8 kts | 96° |
| 2026-04-16 04:07 | 32.91380 | -97.02990 | 576 ft | 8 kts | 169° |
| 2026-04-16 04:07 | 32.91306 | -97.02989 | 574 ft | 13 kts | 179° |
| 2026-04-16 04:08 | 32.91002 | -97.02992 | 576 ft | 81 kts | 180° |
| 2026-04-16 04:08 | 32.90191 | -97.02998 | 574 ft | 148 kts | 180° |
| 2026-04-16 04:08 | 32.89025 | -97.03012 | 1046 ft | 168 kts | 181° |
| 2026-04-16 04:08 | 32.87934 | -97.03023 | 2294 ft | 146 kts | 185° |
| 2026-04-16 04:09 | 32.86892 | -97.03031 | 3124 ft | 163 kts | 185° |
| 2026-04-16 04:09 | 32.85625 | -97.02976 | 3388 ft | 200 kts | 175° |
| 2026-04-16 04:09 | 32.84217 | -97.02407 | 3791 ft | 224 kts | 162° |
| 2026-04-16 04:09 | 32.82683 | -97.01660 | 4188 ft | 251 kts | 163° |
| 2026-04-16 04:10 | 32.81025 | -97.00856 | 4938 ft | 261 kts | 162° |
| 2026-04-16 04:10 | 32.79337 | -96.99976 | 5851 ft | 271 kts | 154° |
| 2026-04-16 04:10 | 32.77974 | -96.98356 | 6694 ft | 287 kts | 126° |
| 2026-04-16 04:10 | 32.77103 | -96.96186 | 7541 ft | 295 kts | 115° |
| 2026-04-16 04:11 | 32.76458 | -96.93837 | 8315 ft | 306 kts | 100° |
| 2026-04-16 04:11 | 32.76500 | -96.91287 | 9183 ft | 311 kts | 86° |
| 2026-04-16 04:11 | 32.76650 | -96.88706 | 10045 ft | 316 kts | 87° |
| 2026-04-16 04:11 | 32.76770 | -96.86045 | 10555 ft | 333 kts | 88° |
| 2026-04-16 04:12 | 32.76994 | -96.83193 | 10716 ft | 361 kts | 77° |
| 2026-04-16 04:12 | 32.78026 | -96.80398 | 11064 ft | 378 kts | 60° |
| 2026-04-16 04:12 | 32.79326 | -96.77643 | 11697 ft | 385 kts | 60° |
| 2026-04-16 04:12 | 32.80654 | -96.74853 | 12478 ft | 389 kts | 60° |
| 2026-04-16 04:13 | 32.81988 | -96.72032 | 13257 ft | 394 kts | 60° |
| 2026-04-16 04:13 | 32.83318 | -96.69196 | 13971 ft | 400 kts | 61° |
| 2026-04-16 04:13 | 32.84676 | -96.66276 | 14665 ft | 405 kts | 61° |
| 2026-04-16 04:13 | 32.86043 | -96.63321 | 15392 ft | 410 kts | 61° |
| 2026-04-16 04:14 | 32.87424 | -96.60325 | 16126 ft | 415 kts | 61° |
| 2026-04-16 04:14 | 32.88819 | -96.57291 | 16836 ft | 421 kts | 61° |
| 2026-04-16 04:14 | 32.90231 | -96.54217 | 17557 ft | 426 kts | 62° |
| 2026-04-16 04:14 | 32.91658 | -96.51107 | 18244 ft | 432 kts | 62° |
| 2026-04-16 04:15 | 32.93108 | -96.47947 | 18821 ft | 437 kts | 62° |
| 2026-04-16 04:15 | 32.94574 | -96.44748 | 19362 ft | 443 kts | 62° |
| 2026-04-16 04:15 | 32.96064 | -96.41493 | 19897 ft | 450 kts | 63° |
| 2026-04-16 04:15 | 32.97571 | -96.38200 | 20482 ft | 455 kts | 63° |
| 2026-04-16 04:16 | 32.99068 | -96.34927 | 21060 ft | 459 kts | 63° |
| 2026-04-16 04:16 | 33.00563 | -96.31543 | 21639 ft | 464 kts | 66° |
| 2026-04-16 04:16 | 33.01890 | -96.28023 | 22147 ft | 468 kts | 69° |
| 2026-04-16 04:16 | 33.03133 | -96.24409 | 22670 ft | 473 kts | 71° |
| 2026-04-16 04:17 | 33.04363 | -96.20745 | 23195 ft | 478 kts | 71° |
| 2026-04-16 04:17 | 33.05611 | -96.17055 | 23721 ft | 482 kts | 71° |
| 2026-04-16 04:17 | 33.06893 | -96.13336 | 24166 ft | 486 kts | 70° |
| 2026-04-16 04:17 | 33.08200 | -96.09597 | 24634 ft | 489 kts | 70° |
| 2026-04-16 04:18 | 33.09524 | -96.05841 | 25057 ft | 493 kts | 70° |
| 2026-04-16 04:18 | 33.10858 | -96.02065 | 25498 ft | 496 kts | 70° |
| 2026-04-16 04:18 | 33.12200 | -95.98264 | 25933 ft | 499 kts | 70° |
| 2026-04-16 04:18 | 33.13532 | -95.94482 | 26346 ft | 502 kts | 70° |
| 2026-04-16 04:19 | 33.14886 | -95.90630 | 26750 ft | 505 kts | 70° |
| 2026-04-16 04:19 | 33.16246 | -95.86753 | 27161 ft | 508 kts | 71° |
| 2026-04-16 04:19 | 33.17614 | -95.82847 | 27552 ft | 511 kts | 71° |
| 2026-04-16 04:19 | 33.18986 | -95.78922 | 28010 ft | 512 kts | 71° |
| 2026-04-16 04:20 | 33.20352 | -95.75002 | 28582 ft | 510 kts | 71° |
| 2026-04-16 04:20 | 33.21714 | -95.71091 | 29200 ft | 508 kts | 71° |
| 2026-04-16 04:20 | 33.23067 | -95.67201 | 29834 ft | 505 kts | 71° |
| 2026-04-16 04:20 | 33.24412 | -95.63327 | 30394 ft | 503 kts | 71° |
| 2026-04-16 04:21 | 33.25751 | -95.59464 | 30923 ft | 503 kts | 71° |
| 2026-04-16 04:21 | 33.27075 | -95.55640 | 31020 ft | 505 kts | 71° |
| 2026-04-16 04:21 | 33.29755 | -95.47885 | 31019 ft | 504 kts | 71° |
| 2026-04-16 04:22 | 33.32428 | -95.40133 | 31002 ft | 505 kts | 71° |
| 2026-04-16 04:22 | 33.35100 | -95.32368 | 30938 ft | 505 kts | 71° |
| 2026-04-16 04:23 | 33.37767 | -95.24599 | 30973 ft | 504 kts | 71° |
| 2026-04-16 04:23 | 33.40420 | -95.16851 | 30973 ft | 503 kts | 71° |
| 2026-04-16 04:24 | 33.43067 | -95.09100 | 30970 ft | 503 kts | 71° |
| 2026-04-16 04:24 | 33.45708 | -95.01349 | 30968 ft | 502 kts | 72° |
| 2026-04-16 04:25 | 33.48341 | -94.93604 | 30951 ft | 500 kts | 72° |
| 2026-04-16 04:25 | 33.50901 | -94.86067 | 30968 ft | 488 kts | 72° |
| 2026-04-16 04:26 | 33.53463 | -94.78480 | 30982 ft | 492 kts | 72° |
| 2026-04-16 04:26 | 33.56035 | -94.70850 | 30972 ft | 495 kts | 72° |
| 2026-04-16 04:27 | 33.58617 | -94.63181 | 30970 ft | 496 kts | 72° |
| 2026-04-16 04:27 | 33.61196 | -94.55506 | 30964 ft | 495 kts | 72° |
| 2026-04-16 04:28 | 33.63763 | -94.47844 | 30967 ft | 494 kts | 72° |
| 2026-04-16 04:28 | 33.66320 | -94.40191 | 30972 ft | 493 kts | 72° |
| 2026-04-16 04:29 | 33.68848 | -94.32608 | 30965 ft | 492 kts | 72° |
| 2026-04-16 04:29 | 33.71411 | -94.24924 | 30971 ft | 492 kts | 71° |
| 2026-04-16 04:30 | 33.74594 | -94.17605 | 30969 ft | 495 kts | 60° |
| 2026-04-16 04:30 | 33.78143 | -94.10589 | 30965 ft | 494 kts | 60° |
| 2026-04-16 04:31 | 33.81659 | -94.03502 | 30960 ft | 492 kts | 61° |
| 2026-04-16 04:31 | 33.85078 | -93.96383 | 30979 ft | 491 kts | 61° |
| 2026-04-16 04:32 | 33.88466 | -93.89247 | 30974 ft | 491 kts | 62° |
| 2026-04-16 04:32 | 33.91836 | -93.82146 | 30983 ft | 492 kts | 62° |
| 2026-04-16 04:33 | 33.93538 | -93.78555 | 30554 ft | 495 kts | 61° |
| 2026-04-16 04:33 | 33.95242 | -93.74960 | 30005 ft | 491 kts | 61° |
| 2026-04-16 04:33 | 33.96932 | -93.71392 | 29323 ft | 489 kts | 62° |
| 2026-04-16 04:33 | 33.98605 | -93.67857 | 28865 ft | 481 kts | 62° |
| 2026-04-16 04:34 | 34.00256 | -93.64365 | 28363 ft | 476 kts | 62° |
| 2026-04-16 04:34 | 34.01884 | -93.60916 | 27892 ft | 471 kts | 62° |
| 2026-04-16 04:34 | 34.03496 | -93.57501 | 27424 ft | 465 kts | 62° |
| 2026-04-16 04:34 | 34.05137 | -93.54134 | 27013 ft | 468 kts | 59° |
| 2026-04-16 04:35 | 34.06917 | -93.50810 | 26608 ft | 474 kts | 57° |
| 2026-04-16 04:35 | 34.08755 | -93.47536 | 26136 ft | 469 kts | 57° |
| 2026-04-16 04:35 | 34.10571 | -93.44349 | 25672 ft | 464 kts | 57° |
| 2026-04-16 04:35 | 34.12387 | -93.41156 | 25223 ft | 460 kts | 57° |
| 2026-04-16 04:36 | 34.14182 | -93.37975 | 24758 ft | 456 kts | 58° |
| 2026-04-16 04:36 | 34.15956 | -93.34803 | 24299 ft | 455 kts | 58° |
| 2026-04-16 04:36 | 34.17718 | -93.31632 | 23852 ft | 453 kts | 58° |
| 2026-04-16 04:36 | 34.19460 | -93.28482 | 23345 ft | 449 kts | 58° |
| 2026-04-16 04:37 | 34.21187 | -93.25351 | 22846 ft | 445 kts | 58° |
| 2026-04-16 04:37 | 34.22892 | -93.22256 | 22372 ft | 440 kts | 58° |
| 2026-04-16 04:37 | 34.24576 | -93.19196 | 21918 ft | 434 kts | 58° |
| 2026-04-16 04:37 | 34.26239 | -93.16173 | 21473 ft | 429 kts | 58° |
| 2026-04-16 04:38 | 34.27883 | -93.13182 | 21035 ft | 426 kts | 58° |
| 2026-04-16 04:38 | 34.29517 | -93.10206 | 20594 ft | 424 kts | 58° |
| 2026-04-16 04:38 | 34.31143 | -93.07244 | 20161 ft | 422 kts | 57° |
| 2026-04-16 04:38 | 34.32767 | -93.04281 | 19704 ft | 419 kts | 58° |
| 2026-04-16 04:39 | 34.34356 | -93.01383 | 19280 ft | 417 kts | 58° |
| 2026-04-16 04:39 | 34.35958 | -92.98457 | 18827 ft | 416 kts | 58° |
| 2026-04-16 04:39 | 34.37549 | -92.95549 | 18395 ft | 413 kts | 58° |
| 2026-04-16 04:39 | 34.39129 | -92.92660 | 17896 ft | 409 kts | 58° |
| 2026-04-16 04:40 | 34.40689 | -92.89805 | 17435 ft | 405 kts | 58° |
| 2026-04-16 04:40 | 34.42231 | -92.86980 | 16997 ft | 400 kts | 58° |
| 2026-04-16 04:40 | 34.43757 | -92.84184 | 16571 ft | 396 kts | 58° |
| 2026-04-16 04:40 | 34.45264 | -92.81417 | 16168 ft | 392 kts | 57° |
| 2026-04-16 04:41 | 34.46773 | -92.78646 | 15756 ft | 393 kts | 57° |
| 2026-04-16 04:41 | 34.48282 | -92.75872 | 15334 ft | 395 kts | 57° |
| 2026-04-16 04:41 | 34.49790 | -92.73099 | 14921 ft | 392 kts | 57° |
| 2026-04-16 04:41 | 34.51283 | -92.70350 | 14497 ft | 389 kts | 58° |
| 2026-04-16 04:42 | 34.52762 | -92.67627 | 14083 ft | 385 kts | 58° |
| 2026-04-16 04:42 | 34.54230 | -92.64921 | 13667 ft | 381 kts | 58° |
| 2026-04-16 04:42 | 34.55192 | -92.63146 | 13385 ft | 379 kts | 58° |
| 2026-04-16 04:42 | 34.57094 | -92.59634 | 12834 ft | 373 kts | 57° |
| 2026-04-16 04:43 | 34.58512 | -92.57014 | 12430 ft | 369 kts | 57° |
| 2026-04-16 04:43 | 34.59914 | -92.54421 | 12031 ft | 366 kts | 57° |
| 2026-04-16 04:43 | 34.60852 | -92.52685 | 11758 ft | 363 kts | 57° |
| 2026-04-16 04:43 | 34.62231 | -92.50132 | 11380 ft | 361 kts | 57° |
| 2026-04-16 04:44 | 34.63594 | -92.47607 | 10994 ft | 362 kts | 56° |
| 2026-04-16 04:44 | 34.64971 | -92.45053 | 10632 ft | 359 kts | 56° |
| 2026-04-16 04:44 | 34.66332 | -92.42529 | 10232 ft | 354 kts | 56° |
| 2026-04-16 04:44 | 34.67648 | -92.40084 | 9954 ft | 337 kts | 56° |
| 2026-04-16 04:45 | 34.68830 | -92.37702 | 9664 ft | 323 kts | 67° |
| 2026-04-16 04:45 | 34.69459 | -92.35119 | 9386 ft | 316 kts | 78° |
| 2026-04-16 04:45 | 34.69923 | -92.32535 | 9141 ft | 311 kts | 79° |
| 2026-04-16 04:45 | 34.70367 | -92.29976 | 8890 ft | 307 kts | 79° |
| 2026-04-16 04:46 | 34.70804 | -92.27447 | 8629 ft | 304 kts | 79° |
| 2026-04-16 04:46 | 34.71230 | -92.24954 | 8379 ft | 300 kts | 79° |
| 2026-04-16 04:46 | 34.71655 | -92.22481 | 8136 ft | 297 kts | 80° |
| 2026-04-16 04:46 | 34.72088 | -92.20042 | 7893 ft | 294 kts | 80° |
| 2026-04-16 04:47 | 34.72525 | -92.17625 | 7649 ft | 291 kts | 80° |
| 2026-04-16 04:47 | 34.72961 | -92.15242 | 7406 ft | 288 kts | 79° |
| 2026-04-16 04:47 | 34.73397 | -92.12875 | 7171 ft | 285 kts | 80° |
| 2026-04-16 04:47 | 34.73835 | -92.10534 | 6930 ft | 283 kts | 79° |
| 2026-04-16 04:48 | 34.74273 | -92.08212 | 6689 ft | 281 kts | 79° |
| 2026-04-16 04:48 | 34.74714 | -92.05907 | 6459 ft | 278 kts | 80° |
| 2026-04-16 04:48 | 34.75153 | -92.03654 | 6217 ft | 277 kts | 79° |
| 2026-04-16 04:48 | 34.75601 | -92.01383 | 5967 ft | 276 kts | 79° |
| 2026-04-16 04:49 | 34.76052 | -91.99123 | 5714 ft | 274 kts | 79° |
| 2026-04-16 04:49 | 34.76667 | -91.96950 | 5473 ft | 271 kts | 60° |
| 2026-04-16 04:49 | 34.77950 | -91.95348 | 5218 ft | 263 kts | 29° |
| 2026-04-16 04:49 | 34.79637 | -91.94716 | 4962 ft | 248 kts | 356° |
| 2026-04-16 04:50 | 34.81232 | -91.95162 | 4709 ft | 227 kts | 322° |
| 2026-04-16 04:50 | 34.82331 | -91.96395 | 4466 ft | 209 kts | 301° |
| 2026-04-16 04:50 | 34.83227 | -91.97757 | 4203 ft | 204 kts | 300° |
| 2026-04-16 04:50 | 34.84101 | -91.99099 | 3960 ft | 202 kts | 300° |
| 2026-04-16 04:51 | 34.84971 | -92.00437 | 3708 ft | 201 kts | 300° |
| 2026-04-16 04:51 | 34.85674 | -92.01860 | 3461 ft | 189 kts | 275° |
| 2026-04-16 04:51 | 34.85691 | -92.03373 | 3329 ft | 176 kts | 258° |
| 2026-04-16 04:51 | 34.85461 | -92.04832 | 3152 ft | 174 kts | 238° |
| 2026-04-16 04:52 | 34.84762 | -92.06020 | 3074 ft | 174 kts | 231° |
| 2026-04-16 04:52 | 34.83946 | -92.07100 | 2955 ft | 174 kts | 220° |
| 2026-04-16 04:52 | 34.83051 | -92.08076 | 2857 ft | 170 kts | 221° |
| 2026-04-16 04:52 | 34.82214 | -92.09025 | 2750 ft | 159 kts | 221° |
| 2026-04-16 04:53 | 34.81412 | -92.09942 | 2491 ft | 157 kts | 221° |
| 2026-04-16 04:53 | 34.80629 | -92.10843 | 2282 ft | 152 kts | 223° |
| 2026-04-16 04:53 | 34.79877 | -92.11711 | 2086 ft | 149 kts | 223° |
| 2026-04-16 04:53 | 34.79123 | -92.12585 | 1908 ft | 148 kts | 221° |
| 2026-04-16 04:54 | 34.78423 | -92.13431 | 1699 ft | 138 kts | 224° |
| 2026-04-16 04:54 | 34.77789 | -92.14288 | 1560 ft | 134 kts | 226° |
| 2026-04-16 04:54 | 34.77172 | -92.15157 | 1415 ft | 136 kts | 229° |
| 2026-04-16 04:54 | 34.76596 | -92.16083 | 1269 ft | 138 kts | 228° |
| 2026-04-16 04:55 | 34.75967 | -92.16980 | 1113 ft | 141 kts | 224° |
| 2026-04-16 04:55 | 34.75286 | -92.17865 | 900 ft | 146 kts | 226° |
| 2026-04-16 04:55 | 34.74584 | -92.18767 | 678 ft | 147 kts | 224° |
| 2026-04-16 04:55 | 34.73879 | -92.19652 | 430 ft | 145 kts | 225° |
| 2026-04-16 04:56 | 34.73205 | -92.20514 | 265 ft | 133 kts | 226° |
| 2026-04-16 04:56 | 34.72711 | -92.21138 | 261 ft | 64 kts | 225° |
| 2026-04-16 04:56 | 34.72515 | -92.21390 | 262 ft | 27 kts | 231° |
| 2026-04-16 04:56 | 34.72435 | -92.21553 | 263 ft | 21 kts | 248° |
| 2026-04-16 04:57 | 34.72415 | -92.21661 | 264 ft | 9 kts | 274° |
| 2026-04-16 04:57 | 34.72464 | -92.21692 | 265 ft | 9 kts | 9° |
| 2026-04-16 04:57 | 34.72512 | -92.21646 | 265 ft | 9 kts | 47° |
| 2026-04-16 04:57 | 34.72561 | -92.21583 | 266 ft | 12 kts | 47° |
| 2026-04-16 04:58 | 34.72626 | -92.21500 | 265 ft | 15 kts | 47° |
| 2026-04-16 04:58 | 34.72703 | -92.21400 | 265 ft | 16 kts | 46° |
| 2026-04-16 04:58 | 34.72774 | -92.21311 | 265 ft | 13 kts | 44° |
| 2026-04-16 04:58 | 34.72847 | -92.21334 | 266 ft | 13 kts | 302° |
| 2026-04-16 04:59 | 34.72883 | -92.21429 | 266 ft | 12 kts | 294° |
| 2026-04-16 04:59 | 34.72917 | -92.21523 | 266 ft | 12 kts | 294° |
| 2026-04-16 04:59 | 34.72951 | -92.21615 | 266 ft | 12 kts | 294° |
| 2026-04-16 04:59 | 34.72984 | -92.21703 | 267 ft | 11 kts | 294° |
| 2026-04-16 05:00 | 34.73013 | -92.21793 | 266 ft | 13 kts | 276° |
| 2026-04-16 05:00 | 34.72978 | -92.21863 | 266 ft | 2 kts | 217° |
| 2026-04-16 05:00 | 34.72976 | -92.21865 | 266 ft | 1 kts | 217° |
| 2026-04-16 05:00 | 34.72975 | -92.21866 | 266 ft | 0 kts | 217° |
| 2026-04-16 05:01 | 34.72972 | -92.21868 | 266 ft | 1 kts | 217° |
| 2026-04-16 05:01 | 34.72964 | -92.21879 | 266 ft | 3 kts | 229° |
| 2026-04-16 05:01 | 34.72958 | -92.21916 | 266 ft | 5 kts | 275° |
| 2026-04-16 05:01 | 34.72962 | -92.21940 | 254 ft | 2 kts | 283° |
| 2026-04-16 05:02 | 34.72964 | -92.21952 | 244 ft | 0 kts | 283° |
| 2026-04-16 05:02 | 34.72965 | -92.21954 | 242 ft | 0 kts | 283° |